Time;durP1;ratioP1;P1;durP2;ratioP2;P2;SDS_P1;SDS_P2;PMS_P1;PMS_P2;Temp;Humidity;BMP_temperature;BMP_pressure;BME280_temperature;BME280_humidity;BME280_pressure;Samples;Min_cycle;Max_cycle;Signal;HPM_P1;HPM_P2
2024/02/14 00:00:33;;;;;;;10.98;6.93;;;;;;;;;;5056609;28;20032;-57
2024/02/14 00:02:59;;;;;;;9.30;7.22;;;;;;;;;;5057079;28;20024;-57
2024/02/14 00:05:26;;;;;;;6.47;5.65;;;;;;;;;;5056713;28;20056;-57
2024/02/14 00:07:52;;;;;;;10.77;6.05;;;;;;;;;;5056980;28;20033;-58
2024/02/14 00:10:18;;;;;;;8.38;5.85;;;;;;;;;;5056662;28;20493;-56
2024/02/14 00:12:44;;;;;;;7.55;5.70;;;;;;;;;;5056120;28;20082;-56
2024/02/14 00:15:10;;;;;;;8.10;5.18;;;;;;;;;;5056036;28;20120;-57
2024/02/14 00:17:36;;;;;;;9.35;5.93;;;;;;;;;;5056833;28;20021;-58
2024/02/14 00:20:03;;;;;;;12.18;5.18;;;;;;;;;;5056399;28;20028;-58
2024/02/14 00:22:29;;;;;;;7.15;5.55;;;;;;;;;;5056427;28;20386;-57
2024/02/14 00:24:55;;;;;;;7.10;5.32;;;;;;;;;;5055808;28;20041;-56
2024/02/14 00:27:21;;;;;;;7.65;5.18;;;;;;;;;;5055840;28;20053;-54
2024/02/14 00:29:48;;;;;;;5.82;4.43;;;;;;;;;;5056102;28;20036;-56
2024/02/14 00:32:14;;;;;;;8.30;5.22;;;;;;;;;;5055746;28;20055;-58
2024/02/14 00:34:40;;;;;;;7.03;4.20;;;;;;;;;;5055688;28;20099;-55
2024/02/14 00:37:06;;;;;;;7.93;5.10;;;;;;;;;;5056410;28;20025;-57
2024/02/14 00:39:32;;;;;;;9.40;4.55;;;;;;;;;;5056467;28;20450;-58
2024/02/14 00:41:57;;;;;;;7.68;4.75;;;;;;;;;;5055618;28;20451;-56
2024/02/14 00:44:23;;;;;;;7.53;5.38;;;;;;;;;;5055476;28;20503;-57
2024/02/14 00:46:50;;;;;;;5.97;4.35;;;;;;;;;;5055234;28;20029;-58
2024/02/14 00:49:16;;;;;;;6.55;3.45;;;;;;;;;;5055534;28;20068;-56
2024/02/14 00:51:42;;;;;;;10.27;3.92;;;;;;;;;;5055304;28;20421;-57
2024/02/14 00:54:08;;;;;;;8.98;3.83;;;;;;;;;;5055897;28;20033;-57
2024/02/14 00:56:34;;;;;;;19.80;4.85;;;;;;;;;;5055439;28;20041;-56
2024/02/14 00:59:00;;;;;;;5.13;3.35;;;;;;;;;;5055211;28;20025;-57
2024/02/14 01:01:26;;;;;;;6.63;3.58;;;;;;;;;;5055170;28;20024;-56
2024/02/14 01:03:52;;;;;;;4.72;2.97;;;;;;;;;;5054787;28;20486;-57
2024/02/14 01:06:18;;;;;;;5.20;3.30;;;;;;;;;;5055762;28;20025;-56
2024/02/14 01:08:45;;;;;;;5.00;2.90;;;;;;;;;;5055863;28;20116;-56
2024/02/14 01:11:12;;;;;;;3.33;2.47;;;;;;;;;;5054965;28;20029;-56
2024/02/14 01:13:38;;;;;;;5.13;3.08;;;;;;;;;;5054943;28;20120;-58
2024/02/14 01:16:04;;;;;;;4.53;3.00;;;;;;;;;;5054539;28;20033;-58
2024/02/14 01:18:30;;;;;;;6.72;3.25;;;;;;;;;;5054852;28;20379;-57
2024/02/14 01:20:56;;;;;;;4.93;2.78;;;;;;;;;;5054664;28;20044;-58
2024/02/14 01:23:22;;;;;;;4.40;2.90;;;;;;;;;;5055180;28;20052;-55
2024/02/14 01:25:48;;;;;;;5.75;3.28;;;;;;;;;;5054721;28;20029;-57
2024/02/14 01:28:14;;;;;;;6.65;2.25;;;;;;;;;;5054999;28;20029;-54
2024/02/14 01:30:44;;;;;;;4.30;2.35;;;;;;;;;;5055100;28;20541;-55
2024/02/14 01:33:10;;;;;;;2.90;2.13;;;;;;;;;;5053299;28;20502;-56
2024/02/14 01:35:36;;;;;;;5.72;2.90;;;;;;;;;;5054476;28;20100;-57
2024/02/14 01:38:02;;;;;;;3.40;2.63;;;;;;;;;;5055009;28;20032;-56
2024/02/14 01:40:28;;;;;;;4.45;2.88;;;;;;;;;;5054419;28;20025;-58
2024/02/14 01:42:55;;;;;;;8.80;2.53;;;;;;;;;;5054405;28;20031;-57
2024/02/14 01:45:21;;;;;;;5.18;2.38;;;;;;;;;;5054265;28;20116;-57
2024/02/14 01:47:48;;;;;;;4.78;2.45;;;;;;;;;;5054360;28;20028;-57
2024/02/14 01:50:14;;;;;;;4.00;2.28;;;;;;;;;;5054233;28;20032;-55
2024/02/14 01:52:40;;;;;;;4.28;2.85;;;;;;;;;;5054825;28;20029;-57
2024/02/14 01:55:08;;;;;;;4.45;2.25;;;;;;;;;;5054590;28;20079;-58
2024/02/14 01:57:35;;;;;;;6.05;2.80;;;;;;;;;;5054730;28;20528;-57
2024/02/14 02:00:08;;;;;;;3.22;2.28;;;;;;;;;;5053699;28;20442;-57
2024/02/14 02:02:36;;;;;;;4.07;2.78;;;;;;;;;;5054299;28;20040;-58
2024/02/14 02:05:02;;;;;;;4.30;2.63;;;;;;;;;;5054123;28;20033;-58
2024/02/14 02:07:28;;;;;;;6.68;3.00;;;;;;;;;;5053931;28;20036;-58
2024/02/14 02:09:54;;;;;;;5.22;2.60;;;;;;;;;;5054472;28;20084;-58
2024/02/14 02:12:20;;;;;;;7.85;2.63;;;;;;;;;;5053914;28;20123;-57
2024/02/14 02:14:46;;;;;;;3.45;2.47;;;;;;;;;;5054398;28;20037;-58
2024/02/14 02:17:12;;;;;;;7.05;3.00;;;;;;;;;;5053906;28;20025;-57
2024/02/14 02:19:38;;;;;;;4.25;2.33;;;;;;;;;;5054063;28;20033;-57
2024/02/14 02:22:04;;;;;;;4.82;2.42;;;;;;;;;;5053888;28;20078;-57
2024/02/14 02:24:30;;;;;;;3.25;2.53;;;;;;;;;;5053689;28;20088;-57
2024/02/14 02:26:56;;;;;;;3.95;2.45;;;;;;;;;;5053766;28;20374;-57
2024/02/14 02:29:22;;;;;;;5.07;2.75;;;;;;;;;;5054303;28;20048;-57
2024/02/14 02:31:48;;;;;;;5.35;3.05;;;;;;;;;;5053677;28;20049;-58
2024/02/14 02:34:16;;;;;;;3.58;2.63;;;;;;;;;;5054134;28;20078;-57
2024/02/14 02:36:43;;;;;;;4.03;2.50;;;;;;;;;;5053618;28;20091;-57
2024/02/14 02:39:09;;;;;;;4.28;2.63;;;;;;;;;;5053717;28;20025;-58
2024/02/14 02:41:35;;;;;;;2.83;2.03;;;;;;;;;;5053289;28;20056;-57
2024/02/14 02:44:01;;;;;;;4.13;2.55;;;;;;;;;;5053483;28;20041;-55
2024/02/14 02:46:27;;;;;;;3.97;2.72;;;;;;;;;;5053480;28;20033;-56
2024/02/14 02:48:58;;;;;;;3.55;2.45;;;;;;;;;;5054089;28;20028;-58
2024/02/14 02:51:24;;;;;;;3.53;2.72;;;;;;;;;;5053525;28;20116;-57
2024/02/14 02:53:51;;;;;;;3.65;2.55;;;;;;;;;;5053969;28;20124;-57
2024/02/14 02:56:18;;;;;;;7.43;2.72;;;;;;;;;;5053125;28;20481;-57
2024/02/14 02:58:44;;;;;;;4.03;2.47;;;;;;;;;;5053432;28;20032;-57
2024/02/14 03:01:11;;;;;;;4.40;2.70;;;;;;;;;;5053417;28;20417;-58
2024/02/14 03:03:38;;;;;;;4.07;2.72;;;;;;;;;;5053264;28;20399;-58
2024/02/14 03:06:04;;;;;;;6.07;3.15;;;;;;;;;;5053308;28;20033;-57
2024/02/14 03:08:30;;;;;;;7.25;2.78;;;;;;;;;;5053635;28;20055;-56
2024/02/14 03:11:03;;;;;;;6.03;3.45;;;;;;;;;;5054554;28;20029;-57
2024/02/14 03:13:29;;;;;;;4.18;3.05;;;;;;;;;;5057259;28;20037;-57
2024/02/14 03:15:57;;;;;;;4.90;2.42;;;;;;;;;;5057151;28;20467;-57
2024/02/14 03:18:23;;;;;;;5.53;3.00;;;;;;;;;;5057977;28;20068;-56
2024/02/14 03:20:49;;;;;;;4.47;2.63;;;;;;;;;;5057821;28;20474;-57
2024/02/14 03:23:16;;;;;;;4.90;3.30;;;;;;;;;;5057437;28;20055;-54
2024/02/14 03:25:42;;;;;;;6.68;2.72;;;;;;;;;;5057537;28;20436;-56
2024/02/14 03:28:08;;;;;;;7.07;3.22;;;;;;;;;;5057787;28;20096;-56
2024/02/14 03:30:39;;;;;;;4.57;2.47;;;;;;;;;;5057373;28;20028;-57
2024/02/14 03:33:05;;;;;;;5.15;4.07;;;;;;;;;;5057467;28;20029;-56
2024/02/14 03:35:31;;;;;;;4.13;3.45;;;;;;;;;;5057308;28;20032;-57
2024/02/14 03:37:56;;;;;;;5.45;3.42;;;;;;;;;;5056788;28;20025;-57
2024/02/14 03:40:23;;;;;;;4.38;3.47;;;;;;;;;;5056669;28;20120;-58
2024/02/14 03:42:49;;;;;;;4.35;2.33;;;;;;;;;;5057217;28;20413;-58
2024/02/14 03:45:15;;;;;;;5.70;3.28;;;;;;;;;;5056582;28;20422;-56
2024/02/14 03:47:41;;;;;;;5.03;2.80;;;;;;;;;;5057206;28;20036;-58
2024/02/14 03:50:08;;;;;;;5.43;2.65;;;;;;;;;;5057082;28;20021;-57
2024/02/14 03:52:34;;;;;;;4.70;2.55;;;;;;;;;;5057263;28;20032;-57
2024/02/14 03:55:00;;;;;;;4.90;2.20;;;;;;;;;;5056518;28;20025;-57
2024/02/14 03:57:30;;;;;;;4.18;2.78;;;;;;;;;;5055920;28;20048;-57
2024/02/14 03:59:56;;;;;;;3.83;2.83;;;;;;;;;;5056360;28;20379;-58
2024/02/14 04:02:27;;;;;;;4.88;2.35;;;;;;;;;;5056830;28;20040;-57
2024/02/14 04:04:53;;;;;;;4.35;2.55;;;;;;;;;;5056480;28;20067;-57
2024/02/14 04:07:19;;;;;;;8.30;3.50;;;;;;;;;;5055899;28;20053;-57
2024/02/14 04:09:45;;;;;;;5.70;2.80;;;;;;;;;;5056808;28;20087;-58
2024/02/14 04:12:12;;;;;;;4.13;2.75;;;;;;;;;;5056122;28;20025;-57
2024/02/14 04:14:38;;;;;;;5.75;2.70;;;;;;;;;;5056041;28;20029;-58
2024/02/14 04:17:05;;;;;;;7.07;3.20;;;;;;;;;;5056096;28;20032;-54
2024/02/14 04:19:31;;;;;;;4.28;2.65;;;;;;;;;;5056080;28;20451;-58
2024/02/14 04:21:57;;;;;;;3.33;2.25;;;;;;;;;;5054878;28;20036;-55
2024/02/14 04:24:22;;;;;;;3.95;2.70;;;;;;;;;;5056380;28;20032;-57
2024/02/14 04:26:49;;;;;;;7.57;3.20;;;;;;;;;;5055574;28;20021;-57
2024/02/14 04:29:15;;;;;;;5.10;2.95;;;;;;;;;;5055831;28;20032;-57
2024/02/14 04:31:42;;;;;;;7.53;2.72;;;;;;;;;;5055771;28;20021;-57
2024/02/14 04:34:10;;;;;;;5.15;3.10;;;;;;;;;;5055701;28;20474;-57
2024/02/14 04:36:35;;;;;;;3.33;2.38;;;;;;;;;;5056166;28;20029;-57
2024/02/14 04:39:01;;;;;;;10.20;3.05;;;;;;;;;;5056248;28;20025;-56
2024/02/14 04:41:27;;;;;;;3.95;2.60;;;;;;;;;;5055600;28;20021;-56
2024/02/14 04:43:53;;;;;;;5.97;2.38;;;;;;;;;;5055497;28;20060;-58
2024/02/14 04:46:22;;;;;;;5.15;3.33;;;;;;;;;;5055565;28;20029;-57
2024/02/14 04:48:48;;;;;;;4.78;2.78;;;;;;;;;;5056279;28;20033;-57
2024/02/14 04:51:14;;;;;;;3.40;2.00;;;;;;;;;;5055405;28;20370;-58
2024/02/14 04:53:40;;;;;;;4.43;2.60;;;;;;;;;;5055403;28;20098;-57
2024/02/14 04:56:07;;;;;;;5.72;3.05;;;;;;;;;;5055782;28;20053;-57
2024/02/14 04:58:33;;;;;;;4.10;2.08;;;;;;;;;;5055239;28;20021;-57
2024/02/14 05:00:59;;;;;;;5.75;2.70;;;;;;;;;;5055783;28;20429;-57
2024/02/14 05:03:25;;;;;;;3.55;2.38;;;;;;;;;;5055164;28;20052;-57
2024/02/14 05:05:51;;;;;;;4.55;2.63;;;;;;;;;;5056019;28;20057;-57
2024/02/14 05:08:17;;;;;;;2.47;1.83;;;;;;;;;;5055781;28;20063;-55
2024/02/14 05:10:43;;;;;;;4.38;2.40;;;;;;;;;;5055154;28;20029;-58
2024/02/14 05:13:09;;;;;;;4.05;2.60;;;;;;;;;;5055639;28;20021;-58
2024/02/14 05:15:35;;;;;;;3.95;2.65;;;;;;;;;;5055563;28;20363;-57
2024/02/14 05:18:01;;;;;;;4.93;2.38;;;;;;;;;;5055587;28;20025;-56
2024/02/14 05:20:27;;;;;;;6.20;2.88;;;;;;;;;;5054851;28;20021;-57
2024/02/14 05:22:53;;;;;;;5.10;2.70;;;;;;;;;;5054560;28;20041;-57
2024/02/14 05:25:19;;;;;;;3.65;2.45;;;;;;;;;;5054778;28;20033;-57
2024/02/14 05:27:46;;;;;;;3.85;2.30;;;;;;;;;;5055352;28;20025;-57
2024/02/14 05:30:13;;;;;;;3.58;1.98;;;;;;;;;;5054649;28;20040;-57
2024/02/14 05:32:39;;;;;;;6.60;2.88;;;;;;;;;;5055129;28;20111;-57
2024/02/14 05:35:05;;;;;;;3.88;3.08;;;;;;;;;;5054281;28;20025;-57
2024/02/14 05:37:31;;;;;;;5.18;2.75;;;;;;;;;;5054867;28;20029;-58
2024/02/14 05:39:58;;;;;;;2.90;2.30;;;;;;;;;;5055204;28;20021;-57
2024/02/14 05:42:23;;;;;;;4.18;2.45;;;;;;;;;;5055062;28;20440;-57
2024/02/14 05:44:51;;;;;;;5.00;2.72;;;;;;;;;;5054578;28;20119;-57
2024/02/14 05:47:18;;;;;;;6.93;2.67;;;;;;;;;;5054517;28;20167;-57
2024/02/14 05:49:45;;;;;;;7.72;2.92;;;;;;;;;;5054934;28;20025;-54
2024/02/14 05:52:11;;;;;;;5.55;2.97;;;;;;;;;;5054340;28;20033;-57
2024/02/14 05:54:37;;;;;;;3.80;2.38;;;;;;;;;;5054242;28;20356;-57
2024/02/14 05:57:04;;;;;;;3.22;2.65;;;;;;;;;;5054246;28;20391;-56
2024/02/14 05:59:30;;;;;;;4.75;3.33;;;;;;;;;;5054716;28;20500;-57
2024/02/14 06:01:56;;;;;;;4.18;2.80;;;;;;;;;;5053997;28;20024;-56
2024/02/14 06:04:22;;;;;;;3.90;2.55;;;;;;;;;;5054083;28;20029;-56
2024/02/14 06:06:48;;;;;;;4.47;2.55;;;;;;;;;;5053770;28;20107;-55
2024/02/14 06:09:14;;;;;;;5.10;1.77;;;;;;;;;;5054628;28;20066;-56
2024/02/14 06:11:40;;;;;;;2.80;2.15;;;;;;;;;;5053665;28;20025;-56
2024/02/14 06:14:06;;;;;;;4.70;2.50;;;;;;;;;;5054540;28;20039;-53
2024/02/14 06:16:33;;;;;;;4.00;2.58;;;;;;;;;;5053680;28;20036;-54
2024/02/14 06:18:59;;;;;;;4.07;2.72;;;;;;;;;;5054551;28;20067;-55
2024/02/14 06:21:25;;;;;;;10.57;3.30;;;;;;;;;;5053876;28;20379;-56
2024/02/14 06:23:51;;;;;;;3.55;2.60;;;;;;;;;;5053809;28;20044;-52
2024/02/14 06:26:17;;;;;;;4.97;2.78;;;;;;;;;;5053779;28;20032;-55
2024/02/14 06:28:43;;;;;;;4.18;2.88;;;;;;;;;;5054688;28;20028;-53
2024/02/14 06:31:09;;;;;;;5.32;3.05;;;;;;;;;;5053832;28;20021;-53
2024/02/14 06:33:35;;;;;;;4.80;3.05;;;;;;;;;;5054028;28;20348;-54
2024/02/14 06:36:01;;;;;;;7.35;3.40;;;;;;;;;;5054276;28;20024;-54
2024/02/14 06:38:27;;;;;;;5.10;3.20;;;;;;;;;;5054206;28;20032;-54
2024/02/14 06:40:53;;;;;;;4.93;3.55;;;;;;;;;;5053551;28;20025;-56
2024/02/14 06:43:19;;;;;;;6.13;3.28;;;;;;;;;;5054042;28;20108;-56
2024/02/14 06:45:45;;;;;;;4.30;3.00;;;;;;;;;;5055147;28;20139;-55
2024/02/14 06:48:11;;;;;;;6.07;3.42;;;;;;;;;;5058093;28;20395;-54
2024/02/14 06:50:38;;;;;;;7.68;3.05;;;;;;;;;;5057762;28;20103;-54
2024/02/14 06:53:04;;;;;;;6.32;3.22;;;;;;;;;;5057951;28;20078;-56
2024/02/14 06:55:31;;;;;;;5.93;2.53;;;;;;;;;;5057241;28;20083;-56
2024/02/14 06:57:57;;;;;;;3.00;2.03;;;;;;;;;;5057977;28;20103;-52
2024/02/14 07:00:23;;;;;;;3.35;2.15;;;;;;;;;;5056942;28;20467;-55
2024/02/14 07:02:49;;;;;;;3.80;2.40;;;;;;;;;;5057202;28;20538;-57
2024/02/14 07:05:15;;;;;;;4.85;2.75;;;;;;;;;;5057632;28;20124;-56
2024/02/14 07:07:42;;;;;;;3.30;2.10;;;;;;;;;;5057299;28;20025;-57
2024/02/14 07:10:08;;;;;;;3.35;2.03;;;;;;;;;;5056871;28;20066;-54
2024/02/14 07:12:35;;;;;;;2.78;1.92;;;;;;;;;;5057178;28;20029;-56
2024/02/14 07:15:02;;;;;;;2.92;1.98;;;;;;;;;;5057594;28;20037;-54
2024/02/14 07:17:30;;;;;;;2.78;1.90;;;;;;;;;;5056951;28;20104;-55
2024/02/14 07:19:55;;;;;;;6.00;2.40;;;;;;;;;;5057460;28;20121;-55
2024/02/14 07:22:21;;;;;;;4.93;2.45;;;;;;;;;;5056419;28;20029;-55
2024/02/14 07:24:48;;;;;;;3.15;1.90;;;;;;;;;;5056788;28;20033;-55
2024/02/14 07:27:17;;;;;;;4.28;2.17;;;;;;;;;;5057301;28;20025;-56
2024/02/14 07:29:49;;;;;;;4.80;2.05;;;;;;;;;;5056730;28;20029;-56
2024/02/14 07:32:15;;;;;;;7.47;1.70;;;;;;;;;;5058224;28;20033;-57
2024/02/14 07:34:41;;;;;;;3.10;2.20;;;;;;;;;;5057513;28;20056;-55
2024/02/14 07:37:07;;;;;;;5.75;2.15;;;;;;;;;;5056941;28;20039;-57
2024/02/14 07:39:34;;;;;;;4.43;2.55;;;;;;;;;;5057136;28;20116;-55
2024/02/14 07:42:03;;;;;;;4.32;2.55;;;;;;;;;;5056669;28;20036;-56
2024/02/14 07:44:29;;;;;;;2.90;1.98;;;;;;;;;;5057187;28;20048;-54
2024/02/14 07:46:55;;;;;;;3.15;1.40;;;;;;;;;;5056806;28;20021;-55
2024/02/14 07:49:21;;;;;;;2.70;1.10;;;;;;;;;;5057165;28;20159;-57
2024/02/14 07:51:47;;;;;;;3.63;1.55;;;;;;;;;;5056562;28;20025;-55
2024/02/14 07:54:14;;;;;;;3.28;1.23;;;;;;;;;;5056298;28;20379;-56
2024/02/14 07:56:40;;;;;;;3.17;1.42;;;;;;;;;;5056938;28;20059;-57
2024/02/14 07:59:06;;;;;;;2.78;1.50;;;;;;;;;;5057139;28;20021;-57
2024/02/14 08:01:34;;;;;;;2.83;1.35;;;;;;;;;;5056640;28;20058;-57
2024/02/14 08:04:00;;;;;;;2.72;1.60;;;;;;;;;;5055357;28;20028;-57
2024/02/14 08:06:27;;;;;;;9.10;1.88;;;;;;;;;;5056587;28;20029;-55
2024/02/14 08:08:57;;;;;;;2.35;1.20;;;;;;;;;;5056963;28;20033;-55
2024/02/14 08:11:23;;;;;;;7.28;1.90;;;;;;;;;;5056509;28;20430;-57
2024/02/14 08:13:49;;;;;;;2.75;1.30;;;;;;;;;;5056281;28;20054;-54
2024/02/14 08:16:15;;;;;;;2.58;1.30;;;;;;;;;;5056269;28;20028;-52
2024/02/14 08:18:43;;;;;;;1.77;1.15;;;;;;;;;;5056498;28;20017;-54
2024/02/14 08:21:10;;;;;;;2.33;1.05;;;;;;;;;;5056468;28;20056;-55
2024/02/14 08:23:38;;;;;;;4.07;1.35;;;;;;;;;;5055889;28;20473;-54
2024/02/14 08:26:10;;;;;;;2.78;1.52;;;;;;;;;;5056729;28;20033;-56
2024/02/14 08:28:36;;;;;;;2.70;1.10;;;;;;;;;;5055837;28;20029;-51
2024/02/14 08:31:02;;;;;;;4.30;2.38;;;;;;;;;;5055903;28;20032;-53
2024/02/14 08:33:28;;;;;;;3.95;1.42;;;;;;;;;;5056295;28;20025;-53
2024/02/14 08:35:57;;;;;;;2.22;1.17;;;;;;;;;;5055719;28;20025;-55
2024/02/14 08:38:23;;;;;;;1.90;1.13;;;;;;;;;;5055588;28;20501;-55
2024/02/14 08:40:49;;;;;;;3.00;1.45;;;;;;;;;;5056028;28;20029;-54
2024/02/14 08:43:15;;;;;;;3.08;1.63;;;;;;;;;;5055666;28;20029;-56
2024/02/14 08:45:41;;;;;;;6.43;1.13;;;;;;;;;;5056248;28;20037;-55
2024/02/14 08:48:07;;;;;;;3.50;1.73;;;;;;;;;;5056180;28;20431;-53
2024/02/14 08:50:33;;;;;;;2.85;1.08;;;;;;;;;;5055431;28;20056;-55
2024/02/14 08:52:59;;;;;;;2.90;1.67;;;;;;;;;;5054787;28;20032;-54
2024/02/14 08:55:25;;;;;;;4.28;2.65;;;;;;;;;;5055361;28;20059;-55
2024/02/14 08:57:51;;;;;;;2.47;1.30;;;;;;;;;;5055662;28;20471;-56
2024/02/14 09:00:19;;;;;;;2.45;1.25;;;;;;;;;;5055258;28;20060;-55
2024/02/14 09:02:46;;;;;;;3.22;1.23;;;;;;;;;;5054926;28;20062;-55
2024/02/14 09:05:12;;;;;;;2.08;1.10;;;;;;;;;;5055017;28;20047;-53
2024/02/14 09:07:38;;;;;;;3.92;1.63;;;;;;;;;;5055198;28;20074;-55
2024/02/14 09:10:06;;;;;;;2.80;1.42;;;;;;;;;;5054544;28;20029;-56
2024/02/14 09:12:32;;;;;;;3.55;1.60;;;;;;;;;;5055347;28;20106;-56
2024/02/14 09:14:58;;;;;;;4.55;2.05;;;;;;;;;;5054965;28;20033;-55
2024/02/14 09:17:25;;;;;;;5.00;2.40;;;;;;;;;;5054820;28;20033;-54
2024/02/14 09:19:51;;;;;;;2.28;1.30;;;;;;;;;;5054716;28;20021;-55
2024/02/14 09:22:21;;;;;;;3.30;1.90;;;;;;;;;;5055073;28;20025;-53
2024/02/14 09:24:47;;;;;;;2.35;1.45;;;;;;;;;;5054277;28;20127;-56
2024/02/14 09:27:16;;;;;;;2.38;1.20;;;;;;;;;;5054381;28;20021;-56
2024/02/14 09:29:42;;;;;;;3.00;1.00;;;;;;;;;;5054660;28;20083;-55
2024/02/14 09:32:08;;;;;;;2.70;1.40;;;;;;;;;;5055168;28;20078;-56
2024/02/14 09:34:34;;;;;;;2.33;1.15;;;;;;;;;;5054596;28;20123;-55
2024/02/14 09:37:00;;;;;;;2.10;1.33;;;;;;;;;;5054839;28;20028;-56
2024/02/14 09:39:26;;;;;;;3.40;1.58;;;;;;;;;;5054520;28;20025;-57
2024/02/14 09:41:55;;;;;;;2.08;1.05;;;;;;;;;;5054410;28;20074;-54
2024/02/14 09:44:21;;;;;;;6.15;1.48;;;;;;;;;;5054641;28;20036;-55
2024/02/14 09:46:49;;;;;;;1.92;1.17;;;;;;;;;;5054282;28;20079;-56
2024/02/14 09:49:16;;;;;;;2.90;1.13;;;;;;;;;;5054750;28;20104;-56
2024/02/14 09:51:42;;;;;;;2.50;0.85;;;;;;;;;;5053977;28;20520;-56
2024/02/14 09:54:09;;;;;;;1.73;1.13;;;;;;;;;;5054640;28;20075;-55
2024/02/14 09:56:35;;;;;;;2.28;1.02;;;;;;;;;;5054359;28;20049;-53
2024/02/14 09:59:02;;;;;;;3.45;0.98;;;;;;;;;;5054994;28;20027;-56
2024/02/14 10:01:28;;;;;;;2.30;1.02;;;;;;;;;;5053886;28;20502;-55
2024/02/14 10:03:54;;;;;;;1.85;0.77;;;;;;;;;;5054626;28;20049;-57
2024/02/14 10:06:20;;;;;;;1.75;0.70;;;;;;;;;;5054155;28;20028;-56
2024/02/14 10:08:50;;;;;;;1.50;0.80;;;;;;;;;;5054094;28;20059;-55
2024/02/14 10:11:17;;;;;;;2.08;1.02;;;;;;;;;;5054134;28;20430;-56
2024/02/14 10:13:46;;;;;;;1.52;0.50;;;;;;;;;;5054044;28;20021;-56
2024/02/14 10:16:12;;;;;;;2.20;0.82;;;;;;;;;;5054732;28;20025;-57
2024/02/14 10:18:39;;;;;;;2.08;0.75;;;;;;;;;;5053987;28;20029;-57
2024/02/14 10:21:05;;;;;;;1.63;0.80;;;;;;;;;;5054078;28;20112;-57
2024/02/14 10:23:32;;;;;;;2.45;0.88;;;;;;;;;;5053788;28;20017;-57
2024/02/14 10:25:58;;;;;;;1.15;0.73;;;;;;;;;;5054116;28;20063;-57
2024/02/14 10:28:24;;;;;;;1.27;0.57;;;;;;;;;;5054368;28;20027;-58
2024/02/14 10:30:50;;;;;;;0.80;0.50;;;;;;;;;;5053753;28;20029;-56
2024/02/14 10:33:17;;;;;;;2.30;0.82;;;;;;;;;;5053481;28;20032;-58
2024/02/14 10:35:43;;;;;;;1.60;0.70;;;;;;;;;;5053709;28;20032;-58
2024/02/14 10:38:10;;;;;;;3.63;1.58;;;;;;;;;;5054204;28;20352;-54
2024/02/14 10:40:38;;;;;;;4.10;0.80;;;;;;;;;;5053932;28;20040;-58
2024/02/14 10:43:04;;;;;;;0.98;0.50;;;;;;;;;;5054435;28;20075;-57
2024/02/14 10:45:30;;;;;;;2.10;0.93;;;;;;;;;;5053228;28;20056;-58
2024/02/14 10:47:57;;;;;;;2.53;0.77;;;;;;;;;;5054229;28;20025;-56
2024/02/14 10:50:24;;;;;;;2.83;0.70;;;;;;;;;;5054366;28;20032;-58
2024/02/14 10:52:53;;;;;;;2.92;0.73;;;;;;;;;;5053582;28;20028;-58
2024/02/14 10:55:22;;;;;;;2.90;0.80;;;;;;;;;;5054055;28;20082;-56
2024/02/14 10:57:49;;;;;;;1.40;0.70;;;;;;;;;;5053061;28;20045;-56
2024/02/14 11:00:18;;;;;;;1.83;0.82;;;;;;;;;;5053721;28;20025;-56
2024/02/14 11:02:44;;;;;;;1.70;1.00;;;;;;;;;;5053401;28;20028;-55
2024/02/14 11:05:17;;;;;;;1.80;0.68;;;;;;;;;;5053363;28;20083;-56
2024/02/14 11:07:46;;;;;;;2.97;1.10;;;;;;;;;;5054244;28;20025;-55
2024/02/14 11:10:16;;;;;;;2.30;0.93;;;;;;;;;;5053999;28;20035;-56
2024/02/14 11:12:42;;;;;;;2.10;0.80;;;;;;;;;;5053093;28;20079;-56
2024/02/14 11:15:19;;;;;;;1.25;0.50;;;;;;;;;;5053391;28;20036;-56
2024/02/14 11:17:45;;;;;;;1.48;0.70;;;;;;;;;;5054196;28;20017;-55
2024/02/14 11:20:12;;;;;;;1.60;0.73;;;;;;;;;;5053130;28;20031;-56
2024/02/14 11:22:38;;;;;;;1.75;0.80;;;;;;;;;;5053556;28;20100;-56
2024/02/14 11:25:08;;;;;;;2.13;0.60;;;;;;;;;;5052878;28;20119;-54
2024/02/14 11:27:34;;;;;;;2.20;0.70;;;;;;;;;;5053491;28;20021;-57
2024/02/14 11:30:00;;;;;;;1.40;0.68;;;;;;;;;;5053550;28;20025;-56
2024/02/14 11:32:28;;;;;;;2.70;0.63;;;;;;;;;;5055248;28;20029;-56
2024/02/14 11:34:55;;;;;;;1.55;0.68;;;;;;;;;;5056909;28;20386;-56
2024/02/14 11:37:27;;;;;;;1.70;0.40;;;;;;;;;;5056831;28;20446;-55
2024/02/14 11:39:53;;;;;;;0.63;0.30;;;;;;;;;;5057289;28;20064;-55
2024/02/14 11:42:22;;;;;;;2.30;0.70;;;;;;;;;;5056686;28;20426;-56
2024/02/14 11:44:48;;;;;;;0.75;0.43;;;;;;;;;;5057207;28;20453;-55
2024/02/14 11:47:14;;;;;;;1.48;0.60;;;;;;;;;;5057281;28;20120;-56
2024/02/14 11:49:40;;;;;;;0.68;0.30;;;;;;;;;;5057217;28;20060;-56
2024/02/14 11:52:10;;;;;;;1.70;0.70;;;;;;;;;;5056466;28;20086;-56
2024/02/14 11:54:36;;;;;;;2.03;0.57;;;;;;;;;;5056520;28;20069;-56
2024/02/14 11:57:02;;;;;;;1.05;0.50;;;;;;;;;;5056136;28;20083;-56
2024/02/14 11:59:28;;;;;;;0.85;0.43;;;;;;;;;;5056471;28;20036;-55
2024/02/14 12:01:57;;;;;;;4.35;0.60;;;;;;;;;;5055799;28;20021;-58
2024/02/14 12:04:23;;;;;;;0.73;0.30;;;;;;;;;;5056680;28;20375;-58
2024/02/14 12:06:49;;;;;;;0.80;0.30;;;;;;;;;;5056491;28;20371;-57
2024/02/14 12:09:15;;;;;;;1.20;0.40;;;;;;;;;;5056797;28;20474;-58
2024/02/14 12:11:43;;;;;;;1.20;0.52;;;;;;;;;;5055976;28;20048;-57
2024/02/14 12:14:09;;;;;;;1.08;0.47;;;;;;;;;;5054907;28;20127;-57
2024/02/14 12:16:36;;;;;;;4.85;0.60;;;;;;;;;;5056102;28;20020;-57
2024/02/14 12:19:09;;;;;;;1.05;0.55;;;;;;;;;;5056493;28;20025;-58
2024/02/14 12:21:38;;;;;;;1.00;0.38;;;;;;;;;;5056019;28;20032;-59
2024/02/14 12:24:05;;;;;;;0.68;0.40;;;;;;;;;;5056061;28;20029;-57
2024/02/14 12:26:32;;;;;;;0.82;0.28;;;;;;;;;;5056444;28;20471;-58
2024/02/14 12:28:58;;;;;;;1.00;0.40;;;;;;;;;;5056438;28;20432;-56
2024/02/14 12:31:24;;;;;;;1.50;0.43;;;;;;;;;;5055909;28;20057;-57
2024/02/14 12:33:52;;;;;;;2.30;0.30;;;;;;;;;;5056617;28;20119;-57
2024/02/14 12:36:18;;;;;;;1.40;0.60;;;;;;;;;;5055821;28;20039;-58
2024/02/14 12:38:45;;;;;;;1.27;0.45;;;;;;;;;;5055775;28;20159;-58
2024/02/14 12:41:11;;;;;;;1.02;0.40;;;;;;;;;;5056298;28;20075;-58
2024/02/14 12:43:36;;;;;;;0.82;0.32;;;;;;;;;;5054509;28;20025;-58
2024/02/14 12:46:04;;;;;;;0.43;0.25;;;;;;;;;;5055422;28;20025;-58
2024/02/14 12:48:30;;;;;;;0.45;0.25;;;;;;;;;;5056783;28;20028;-57
2024/02/14 12:50:57;;;;;;;0.90;0.30;;;;;;;;;;5055569;28;20021;-58
2024/02/14 12:53:23;;;;;;;0.98;0.40;;;;;;;;;;5055456;28;20025;-58
2024/02/14 12:55:49;;;;;;;1.27;0.55;;;;;;;;;;5055546;28;20132;-58
2024/02/14 12:58:16;;;;;;;1.15;0.47;;;;;;;;;;5055334;28;20033;-57
2024/02/14 13:00:42;;;;;;;1.20;0.40;;;;;;;;;;5055352;28;20036;-57
2024/02/14 13:03:10;;;;;;;0.77;0.30;;;;;;;;;;5056085;28;20067;-56
2024/02/14 13:05:36;;;;;;;0.60;0.30;;;;;;;;;;5054889;28;20466;-57
2024/02/14 13:08:03;;;;;;;0.80;0.20;;;;;;;;;;5056043;28;20132;-56
2024/02/14 13:10:31;;;;;;;0.90;0.32;;;;;;;;;;5055649;28;20424;-58
2024/02/14 13:12:57;;;;;;;2.33;0.28;;;;;;;;;;5055147;28;20029;-57
2024/02/14 13:15:23;;;;;;;0.70;0.35;;;;;;;;;;5055640;28;20404;-57
2024/02/14 13:17:49;;;;;;;0.52;0.22;;;;;;;;;;5054381;28;20029;-57
2024/02/14 13:20:15;;;;;;;1.90;0.50;;;;;;;;;;5054951;28;20086;-56
2024/02/14 13:22:44;;;;;;;0.60;0.20;;;;;;;;;;5055168;28;20056;-57
2024/02/14 13:25:10;;;;;;;0.55;0.20;;;;;;;;;;5055391;28;20116;-57
2024/02/14 13:27:36;;;;;;;4.63;0.35;;;;;;;;;;5055378;28;20454;-56
2024/02/14 13:30:02;;;;;;;0.75;0.25;;;;;;;;;;5055092;28;20048;-57
2024/02/14 13:32:28;;;;;;;0.50;0.20;;;;;;;;;;5054809;28;20374;-58
2024/02/14 13:34:54;;;;;;;0.57;0.20;;;;;;;;;;5054553;28;20063;-56
2024/02/14 13:37:20;;;;;;;1.00;0.32;;;;;;;;;;5054788;28;20063;-58
2024/02/14 13:39:47;;;;;;;0.93;0.40;;;;;;;;;;5055103;28;20059;-58
2024/02/14 13:42:13;;;;;;;1.25;0.30;;;;;;;;;;5054337;28;20056;-58
2024/02/14 13:44:39;;;;;;;1.15;0.40;;;;;;;;;;5054735;28;20075;-57
2024/02/14 13:47:06;;;;;;;0.40;0.17;;;;;;;;;;5053850;28;20028;-58
2024/02/14 13:49:32;;;;;;;0.50;0.20;;;;;;;;;;5055028;28;20116;-58
2024/02/14 13:51:58;;;;;;;1.13;0.20;;;;;;;;;;5054117;28;20459;-56
2024/02/14 13:54:24;;;;;;;1.40;0.30;;;;;;;;;;5053794;28;20032;-57
2024/02/14 13:56:50;;;;;;;0.28;0.10;;;;;;;;;;5054168;28;20428;-58
2024/02/14 13:59:16;;;;;;;0.60;0.20;;;;;;;;;;5054530;28;20053;-58
2024/02/14 14:01:43;;;;;;;0.55;0.15;;;;;;;;;;5054246;28;20131;-58
2024/02/14 14:04:09;;;;;;;0.90;0.25;;;;;;;;;;5053639;28;20036;-57
2024/02/14 14:06:35;;;;;;;0.50;0.20;;;;;;;;;;5054038;28;20120;-57
2024/02/14 14:09:03;;;;;;;0.20;0.00;;;;;;;;;;5054574;28;20029;-57
2024/02/14 14:11:29;;;;;;;0.30;0.20;;;;;;;;;;5054017;28;20040;-56
2024/02/14 14:13:55;;;;;;;0.05;0.00;;;;;;;;;;5054767;28;20028;-58
2024/02/14 14:16:21;;;;;;;0.50;0.10;;;;;;;;;;5054018;28;20032;-57
2024/02/14 14:18:47;;;;;;;0.60;0.10;;;;;;;;;;5054548;28;20029;-58
2024/02/14 14:21:13;;;;;;;0.52;0.20;;;;;;;;;;5053718;28;20025;-58
2024/02/14 14:23:39;;;;;;;5.15;0.30;;;;;;;;;;5053791;28;20032;-57
2024/02/14 14:26:06;;;;;;;0.52;0.22;;;;;;;;;;5053497;28;20028;-57
2024/02/14 14:28:32;;;;;;;2.22;0.63;;;;;;;;;;5054985;28;20032;-57
2024/02/14 14:31:00;;;;;;;0.30;0.20;;;;;;;;;;5053550;28;20029;-58
2024/02/14 14:33:26;;;;;;;0.77;0.35;;;;;;;;;;5053720;28;20033;-58
2024/02/14 14:35:53;;;;;;;0.90;0.40;;;;;;;;;;5053712;28;20076;-58
2024/02/14 14:38:19;;;;;;;0.32;0.17;;;;;;;;;;5053812;28;20478;-58